1885 NOT_NAMED (1885208N21139)


IBTrACS version v04r00. Visit IBTrACS website for data access.
Please direct all questions to the IBTrACS Q and A forum

Storm track - Intensity - Wind Radii - Intensity Data - Source Data - All data

Summary Information

Storm ID 1885208N21139
Start Jul 26 16Z
End Aug 2 04Z
ATCF IDs
Track status Best track data.

Storm track plot

Map of storm track

Intensity plots

No Intensity information for this storm


Radial wind information

No radial wind information for this storm


Position and Intensity Table

BASIN ISO_TIME_________ NATURE LAT LON
degrees north degrees east
WP 1885-07-26 16:00:00 NR 21.10 138.90
WP 18:00:00 NR 21.12 138.79
WP 21:00:00 NR 21.14 138.63
WP 1885-07-27 00:00:00 NR 21.17 138.46
WP 03:00:00 NR 21.19 138.27
WP 04:00:00 NR 21.20 138.20
WP 06:00:00 NR 21.22 138.06
WP 09:00:00 NR 21.24 137.82
WP 12:00:00 NR 21.27 137.57
WP 15:00:00 NR 21.29 137.29
WP 16:00:00 NR 21.30 137.20
WP 18:00:00 NR 21.32 137.01
WP 21:00:00 NR 21.35 136.72
WP 1885-07-28 00:00:00 NR 21.37 136.42
WP 03:00:00 NR 21.39 136.11
WP 04:00:00 NR 21.40 136.00
WP 06:00:00 NR 21.40 135.79
WP 09:00:00 NR 21.39 135.47
WP 12:00:00 NR 21.39 135.15
WP 15:00:00 NR 21.39 134.81
WP 16:00:00 NR 21.40 134.70
WP 18:00:00 NR 21.42 134.49
WP 21:00:00 NR 21.47 134.16
WP 1885-07-29 00:00:00 NR 21.52 133.81
WP 03:00:00 NR 21.58 133.43
WP 04:00:00 NR 21.60 133.30
WP 06:00:00 NR 21.63 133.01
WP 09:00:00 NR 21.66 132.55
WP 12:00:00 NR 21.71 132.06
WP 15:00:00 NR 21.77 131.56
WP 16:00:00 NR 21.80 131.40
WP 18:00:00 NR 21.87 131.08
WP 21:00:00 NR 21.98 130.59
WP 1885-07-30 00:00:00 NR 22.12 130.11
WP 03:00:00 NR 22.25 129.65
WP 04:00:00 NR 22.30 129.50
WP 06:00:00 NR 22.37 129.22
WP 09:00:00 NR 22.49 128.82
WP 12:00:00 NR 22.61 128.42
WP 15:00:00 NR 22.75 128.03
WP 16:00:00 NR 22.80 127.90
WP 18:00:00 NR 22.91 127.61
WP 21:00:00 NR 23.10 127.17
WP 1885-07-31 00:00:00 NR 23.30 126.74
WP 03:00:00 NR 23.52 126.33
WP 04:00:00 NR 23.60 126.20
WP 06:00:00 NR 23.75 125.96
WP 09:00:00 NR 23.99 125.62
WP 12:00:00 NR 24.25 125.30
WP 15:00:00 NR 24.51 125.00
WP 16:00:00 NR 24.60 124.90
WP 18:00:00 NR 24.79 124.67
WP 21:00:00 NR 25.07 124.33
WP 1885-08-01 00:00:00 NR 25.35 124.02
WP 03:00:00 NR 25.62 123.77
WP 04:00:00 NR 25.70 123.70
WP 06:00:00 NR 25.85 123.61
WP 09:00:00 NR 26.05 123.53
WP 12:00:00 NR 26.24 123.48
WP 15:00:00 NR 26.43 123.43
WP 16:00:00 NR 26.50 123.40
WP 18:00:00 NR 26.64 123.33
WP 21:00:00 NR 26.86 123.17
WP 1885-08-02 00:00:00 NR 27.09 122.98
WP 03:00:00 NR 27.32 122.77
WP 04:00:00 NR 27.40 122.70

Source Information

Agency Information
USA
TOKYO
CMA
HKO
NEWDELHI
REUNION
BOM
NADI
WELLINGTON
DS824
TD9636 cons_worldwide_trop_cyclone_18710101-19891231-003:Line=189
TD9635
NEUMANN
MLC

All available IBTrACS Data

SEASON BASIN SUBBASIN ISO_TIME_________ NATURE LAT LON DIST2LAND LANDFALL IFLAG USA SSHS TD9636 LAT TD9636 LON TD9636 STAGE STORM SPEED STORM DIR
Year degrees north degrees east km km 1 degrees north degrees east kts degrees
1885 WP MM 1885-07-26 16:00:00 NR 21.10 138.90 1370 1365 __________O___ -1 21.10 138.90 4 3 280
1885 WP MM 18:00:00 NR 21.12 138.79 1365 1354 __________P___ -1 21.12 138.79 4 3 279
1885 WP MM 21:00:00 NR 21.14 138.63 1354 1339 __________P___ -1 21.14 138.63 4 3 279
1885 WP MM 1885-07-27 00:00:00 NR 21.17 138.46 1339 1329 __________P___ -1 21.17 138.46 4 3 278
1885 WP MM 03:00:00 NR 21.19 138.27 1329 1324 __________P___ -1 21.19 138.27 4 4 278
1885 WP MM 04:00:00 NR 21.20 138.20 1324 1319 __________O___ -1 21.20 138.20 4 4 277
1885 WP MM 06:00:00 NR 21.22 138.06 1319 1303 __________P___ -1 21.22 138.06 4 4 277
1885 WP MM 09:00:00 NR 21.24 137.82 1303 1282 __________P___ -1 21.24 137.82 4 5 276
1885 WP MM 12:00:00 NR 21.27 137.57 1282 1266 __________P___ -1 21.27 137.57 4 5 276
1885 WP MM 15:00:00 NR 21.29 137.29 1266 1261 __________P___ -1 21.29 137.29 4 5 276
1885 WP MM 16:00:00 NR 21.30 137.20 1261 1251 __________O___ -1 21.30 137.20 4 5 276
1885 WP MM 18:00:00 NR 21.32 137.01 1251 1237 __________P___ -1 21.32 137.01 4 5 276
1885 WP MM 21:00:00 NR 21.35 136.72 1237 1212 __________P___ -1 21.35 136.72 4 6 276
1885 WP MM 1885-07-28 00:00:00 NR 21.37 136.42 1212 1199 __________P___ -1 21.37 136.42 4 6 275
1885 WP MM 03:00:00 NR 21.39 136.11 1199 1194 __________P___ -1 21.39 136.11 4 6 274
1885 WP MM 04:00:00 NR 21.40 136.00 1194 1186 __________O___ -1 21.40 136.00 4 6 271
1885 WP MM 06:00:00 NR 21.40 135.79 1186 1173 __________P___ -1 21.40 135.79 4 6 269
1885 WP MM 09:00:00 NR 21.39 135.47 1173 1158 __________P___ -1 21.39 135.47 4 6 269
1885 WP MM 12:00:00 NR 21.39 135.15 1158 1147 __________P___ -1 21.39 135.15 4 6 270
1885 WP MM 15:00:00 NR 21.39 134.81 1147 1143 __________P___ -1 21.39 134.81 4 6 271
1885 WP MM 16:00:00 NR 21.40 134.70 1143 1136 __________O___ -1 21.40 134.70 4 6 275
1885 WP MM 18:00:00 NR 21.42 134.49 1136 1116 __________P___ -1 21.42 134.49 4 6 278
1885 WP MM 21:00:00 NR 21.47 134.16 1116 1104 __________P___ -1 21.47 134.16 4 6 279
1885 WP MM 1885-07-29 00:00:00 NR 21.52 133.81 1104 1083 __________P___ -1 21.52 133.81 4 7 280
1885 WP MM 03:00:00 NR 21.58 133.43 1083 1081 __________P___ -1 21.58 133.43 4 7 279
1885 WP MM 04:00:00 NR 21.60 133.30 1081 1074 __________O___ -1 21.60 133.30 4 8 277
1885 WP MM 06:00:00 NR 21.63 133.01 1074 1054 __________P___ -1 21.63 133.01 4 8 275
1885 WP MM 09:00:00 NR 21.66 132.55 1054 1048 __________P___ -1 21.66 132.55 4 9 275
1885 WP MM 12:00:00 NR 21.71 132.06 1048 1031 __________P___ -1 21.71 132.06 4 9 277
1885 WP MM 15:00:00 NR 21.77 131.56 1031 1016 __________P___ -1 21.77 131.56 4 9 278
1885 WP MM 16:00:00 NR 21.80 131.40 1016 983 __________O___ -1 21.80 131.40 4 9 282
1885 WP MM 18:00:00 NR 21.87 131.08 983 931 __________P___ -1 21.87 131.08 4 9 284
1885 WP MM 21:00:00 NR 21.98 130.59 931 878 __________P___ -1 21.98 130.59 4 9 286
1885 WP MM 1885-07-30 00:00:00 NR 22.12 130.11 878 822 __________P___ -1 22.12 130.11 4 9 287
1885 WP MM 03:00:00 NR 22.25 129.65 822 813 __________P___ -1 22.25 129.65 4 9 288
1885 WP MM 04:00:00 NR 22.30 129.50 813 780 __________O___ -1 22.30 129.50 4 8 287
1885 WP MM 06:00:00 NR 22.37 129.22 780 737 __________P___ -1 22.37 129.22 4 8 287
1885 WP MM 09:00:00 NR 22.49 128.82 737 695 __________P___ -1 22.49 128.82 4 8 288
1885 WP MM 12:00:00 NR 22.61 128.42 695 652 __________P___ -1 22.61 128.42 4 8 290
1885 WP MM 15:00:00 NR 22.75 128.03 652 639 __________P___ -1 22.75 128.03 4 8 292
1885 WP MM 16:00:00 NR 22.80 127.90 639 606 __________O___ -1 22.80 127.90 4 8 293
1885 WP MM 18:00:00 NR 22.91 127.61 606 561 __________P___ -1 22.91 127.61 4 9 294
1885 WP MM 21:00:00 NR 23.10 127.17 561 505 __________P___ -1 23.10 127.17 4 9 296
1885 WP MM 1885-07-31 00:00:00 NR 23.30 126.74 505 460 __________P___ -1 23.30 126.74 4 9 299
1885 WP MM 03:00:00 NR 23.52 126.33 460 447 __________P___ -1 23.52 126.33 4 9 301
1885 WP MM 04:00:00 NR 23.60 126.20 447 423 __________O___ -1 23.60 126.20 4 8 304
1885 WP MM 06:00:00 NR 23.75 125.96 423 379 __________P___ -1 23.75 125.96 4 8 307
1885 WP MM 09:00:00 NR 23.99 125.62 379 345 __________P___ -1 23.99 125.62 4 8 310
1885 WP MM 12:00:00 NR 24.25 125.30 345 307 __________P___ -1 24.25 125.30 4 8 312
1885 WP MM 15:00:00 NR 24.51 125.00 307 295 __________P___ -1 24.51 125.00 4 8 314
1885 WP MM 16:00:00 NR 24.60 124.90 295 273 __________O___ -1 24.60 124.90 4 8 313
1885 WP MM 18:00:00 NR 24.79 124.67 273 231 __________P___ -1 24.79 124.67 4 8 312
1885 WP MM 21:00:00 NR 25.07 124.33 231 203 __________P___ -1 25.07 124.33 4 8 314
1885 WP MM 1885-08-01 00:00:00 NR 25.35 124.02 205 189 __________P___ -1 25.35 124.02 4 7 317
1885 WP MM 03:00:00 NR 25.62 123.77 192 183 __________P___ -1 25.62 123.77 4 7 320
1885 WP MM 04:00:00 NR 25.70 123.70 187 183 __________O___ -1 25.70 123.70 4 5 328
1885 WP MM 06:00:00 NR 25.85 123.61 183 187 __________P___ -1 25.85 123.61 4 5 337
1885 WP MM 09:00:00 NR 26.05 123.53 194 194 __________P___ -1 26.05 123.53 4 4 344
1885 WP MM 12:00:00 NR 26.24 123.48 201 208 __________P___ -1 26.24 123.48 4 4 347
1885 WP MM 15:00:00 NR 26.43 123.43 210 210 __________P___ -1 26.43 123.43 4 4 345
1885 WP MM 16:00:00 NR 26.50 123.40 218 218 __________O___ -1 26.50 123.40 4 4 336
1885 WP MM 18:00:00 NR 26.64 123.33 221 221 __________P___ -1 26.64 123.33 4 5 330
1885 WP MM 21:00:00 NR 26.86 123.17 221 192 __________P___ -1 26.86 123.17 4 5 326
1885 WP MM 1885-08-02 00:00:00 NR 27.09 122.98 192 162 __________P___ -1 27.09 122.98 4 6 322
1885 WP MM 03:00:00 NR 27.32 122.77 162 147 __________P___ -1 27.32 122.77 4 6 321
1885 WP MM 04:00:00 NR 27.40 122.70 147 __________O___ -1 27.40 122.70 4 6 319